createdAt,value
2018-07-31T00:00:38.020Z,19.90
2018-07-31T00:03:06.453Z,19.90
2018-07-31T00:05:34.890Z,19.90
2018-07-31T00:08:03.333Z,19.90
2018-07-31T00:10:31.797Z,19.60
2018-07-31T00:13:00.224Z,19.20
2018-07-31T00:15:28.683Z,19.00
2018-07-31T00:17:57.086Z,18.90
2018-07-31T00:20:25.675Z,19.00
2018-07-31T00:22:54.285Z,19.00
2018-07-31T00:25:22.750Z,19.00
2018-07-31T00:27:51.293Z,19.10
2018-07-31T00:30:19.730Z,19.10
2018-07-31T00:32:48.163Z,19.10
2018-07-31T00:35:16.588Z,19.10
2018-07-31T00:37:45.008Z,19.10
2018-07-31T00:40:13.439Z,19.20
2018-07-31T00:42:41.871Z,19.20
2018-07-31T00:45:10.313Z,19.20
2018-07-31T00:47:38.736Z,19.20
2018-07-31T00:50:07.208Z,19.20
2018-07-31T00:52:35.605Z,19.20
2018-07-31T00:55:04.364Z,19.20
2018-07-31T00:57:32.784Z,19.20
2018-07-31T01:00:01.225Z,19.20
2018-07-31T01:02:29.690Z,19.30
2018-07-31T01:04:58.112Z,19.20
2018-07-31T01:07:26.547Z,19.20
2018-07-31T01:09:55.623Z,19.20
2018-07-31T01:12:24.024Z,19.10
2018-07-31T01:14:52.458Z,19.10
2018-07-31T01:17:20.860Z,19.10
2018-07-31T01:19:49.316Z,19.00
2018-07-31T01:24:46.069Z,18.90
2018-07-31T01:27:14.495Z,18.90
2018-07-31T01:29:42.950Z,18.80
2018-07-31T01:32:11.496Z,18.80
2018-07-31T01:34:39.920Z,18.80
2018-07-31T01:37:08.361Z,18.70
2018-07-31T01:39:36.780Z,18.60
2018-07-31T01:42:05.270Z,18.60
2018-07-31T01:44:33.703Z,18.50
2018-07-31T01:47:02.136Z,18.50
2018-07-31T01:49:30.537Z,18.50
2018-07-31T01:54:27.104Z,18.40
2018-07-31T01:56:55.566Z,18.40
2018-07-31T01:59:23.989Z,18.40
2018-07-31T02:01:52.447Z,18.40
2018-07-31T02:04:20.869Z,18.40
2018-07-31T02:06:49.315Z,18.30
2018-07-31T02:09:17.711Z,18.30
2018-07-31T02:11:46.177Z,18.30
2018-07-31T02:14:14.580Z,18.30
2018-07-31T02:16:43.064Z,18.30
2018-07-31T02:19:11.488Z,18.30
2018-07-31T02:21:39.929Z,18.30
2018-07-31T02:24:08.329Z,18.20
2018-07-31T02:26:36.787Z,18.20
2018-07-31T02:29:05.248Z,18.10
2018-07-31T02:31:33.667Z,18.00
2018-07-31T02:34:02.094Z,17.90
2018-07-31T02:36:30.541Z,18.00
2018-07-31T02:38:58.948Z,17.90
2018-07-31T02:41:27.378Z,17.80
2018-07-31T02:43:55.823Z,17.70
2018-07-31T02:46:24.276Z,17.80
2018-07-31T02:48:52.727Z,17.80
2018-07-31T02:51:21.204Z,17.90
2018-07-31T02:56:17.750Z,17.90
2018-07-31T02:58:46.159Z,17.90
2018-07-31T03:01:14.636Z,17.90
2018-07-31T03:03:43.052Z,17.80
2018-07-31T03:06:11.488Z,17.80
2018-07-31T03:11:08.092Z,17.80
2018-07-31T03:13:36.517Z,17.70
2018-07-31T03:16:04.980Z,17.70
2018-07-31T03:18:33.413Z,17.70
2018-07-31T03:21:01.845Z,17.60
2018-07-31T03:23:30.254Z,17.60
2018-07-31T03:25:58.704Z,17.60
2018-07-31T03:28:27.112Z,17.60
2018-07-31T03:30:55.511Z,17.60
2018-07-31T03:33:23.944Z,17.60
2018-07-31T03:38:20.500Z,17.70
2018-07-31T03:43:17.104Z,17.60
2018-07-31T03:45:45.513Z,17.60
2018-07-31T03:48:14.094Z,17.60
2018-07-31T03:50:42.506Z,17.50
2018-07-31T03:53:10.996Z,17.50
2018-07-31T03:55:39.461Z,17.50
2018-07-31T03:58:07.852Z,17.50
2018-07-31T04:00:44.510Z,17.50
2018-07-31T04:03:12.956Z,17.60
2018-07-31T04:05:41.344Z,17.60
2018-07-31T04:08:09.900Z,17.60
2018-07-31T04:10:38.340Z,17.60
2018-07-31T04:13:06.772Z,17.50
2018-07-31T04:15:35.216Z,17.50
2018-07-31T04:18:03.676Z,17.50
2018-07-31T04:20:32.264Z,17.50
2018-07-31T04:23:00.717Z,17.60
2018-07-31T04:25:29.136Z,17.60
2018-07-31T04:27:57.602Z,17.70
2018-07-31T04:30:26.029Z,17.70
2018-07-31T04:32:54.465Z,17.80
2018-07-31T04:35:22.878Z,17.80
2018-07-31T04:37:51.317Z,17.70
2018-07-31T04:40:19.712Z,17.50
2018-07-31T04:42:48.188Z,17.50
2018-07-31T04:45:16.603Z,17.50
2018-07-31T04:47:45.028Z,17.60
2018-07-31T04:50:13.561Z,17.70
2018-07-31T04:52:41.968Z,17.80
2018-07-31T04:55:10.377Z,17.90
2018-07-31T04:57:38.844Z,17.90
2018-07-31T05:00:08.608Z,18.00
2018-07-31T05:02:37.869Z,18.00
2018-07-31T05:05:06.294Z,18.10
2018-07-31T05:07:39.866Z,18.10
2018-07-31T05:10:10.866Z,18.30
2018-07-31T05:12:39.805Z,18.50
2018-07-31T05:15:08.259Z,18.70
2018-07-31T05:17:37.550Z,18.80
2018-07-31T05:20:06.816Z,18.90
2018-07-31T05:22:35.245Z,19.00
2018-07-31T05:25:03.703Z,19.20
2018-07-31T05:27:32.234Z,19.40
2018-07-31T05:30:00.690Z,19.50
2018-07-31T05:32:29.184Z,19.70
2018-07-31T05:34:57.616Z,19.80
2018-07-31T05:37:26.013Z,19.90
2018-07-31T05:39:54.561Z,20.00
2018-07-31T05:42:22.969Z,20.10
2018-07-31T05:44:51.453Z,20.30
2018-07-31T05:47:19.855Z,20.50
2018-07-31T05:49:48.289Z,20.70
2018-07-31T05:52:16.708Z,20.90
2018-07-31T05:54:45.164Z,21.10
2018-07-31T05:57:13.625Z,21.20
2018-07-31T05:59:42.084Z,21.40
2018-07-31T06:02:10.577Z,21.60
2018-07-31T06:07:07.125Z,22.20
2018-07-31T06:09:35.646Z,22.50
2018-07-31T06:12:04.112Z,22.90
2018-07-31T06:14:32.553Z,23.30
2018-07-31T06:17:00.969Z,23.70
2018-07-31T06:19:29.411Z,24.20
2018-07-31T06:21:57.827Z,24.90
2018-07-31T06:24:26.261Z,25.50
2018-07-31T06:26:54.723Z,26.20
2018-07-31T06:29:23.394Z,27.00
2018-07-31T06:31:51.845Z,27.90
2018-07-31T06:34:20.263Z,28.70
2018-07-31T06:36:48.718Z,29.50
2018-07-31T06:41:45.264Z,31.00
2018-07-31T06:44:13.748Z,31.30
2018-07-31T06:49:10.331Z,32.00
2018-07-31T06:51:38.784Z,32.20
2018-07-31T06:54:07.292Z,32.20
2018-07-31T06:56:35.759Z,32.90
2018-07-31T06:59:04.217Z,33.10
2018-07-31T07:01:32.658Z,33.70
2018-07-31T07:04:01.110Z,33.80
2018-07-31T07:06:29.516Z,33.90
2018-07-31T07:08:57.930Z,34.20
2018-07-31T07:11:26.352Z,34.80
2018-07-31T07:13:54.820Z,36.50
2018-07-31T07:16:23.260Z,36.70
2018-07-31T07:18:52.533Z,37.10
2018-07-31T07:23:49.070Z,39.50
2018-07-31T07:26:17.512Z,41.10
2018-07-31T07:28:45.917Z,41.80
2018-07-31T07:31:14.379Z,42.60
2018-07-31T07:33:42.842Z,42.20
2018-07-31T07:36:11.300Z,42.50
2018-07-31T07:38:39.721Z,43.20
2018-07-31T07:41:08.332Z,43.10
2018-07-31T07:43:36.775Z,42.00
2018-07-31T07:46:05.223Z,42.80
2018-07-31T07:48:33.805Z,42.90
2018-07-31T07:51:02.214Z,43.00
2018-07-31T07:53:30.623Z,43.30
2018-07-31T07:55:59.081Z,44.40
2018-07-31T07:58:27.481Z,44.30
2018-07-31T08:00:55.953Z,44.70
2018-07-31T08:03:24.388Z,44.80
2018-07-31T08:05:53.356Z,45.10
2018-07-31T08:08:21.940Z,44.70
2018-07-31T08:10:50.406Z,43.40
2018-07-31T08:13:18.860Z,43.40
2018-07-31T08:15:47.290Z,43.00
2018-07-31T08:18:15.850Z,42.20
2018-07-31T08:20:44.282Z,43.00
2018-07-31T08:23:12.890Z,43.30
2018-07-31T08:25:41.361Z,43.40
2018-07-31T08:28:09.773Z,44.10
2018-07-31T08:30:38.222Z,44.90
2018-07-31T08:33:06.676Z,44.60
2018-07-31T08:35:35.144Z,44.70
2018-07-31T08:38:03.553Z,45.40
2018-07-31T08:40:31.985Z,45.30
2018-07-31T08:43:00.409Z,45.10
2018-07-31T08:45:28.980Z,45.20
2018-07-31T08:47:57.375Z,45.10
2018-07-31T08:50:25.843Z,45.70
2018-07-31T08:52:54.368Z,45.00
2018-07-31T08:55:22.765Z,43.80
2018-07-31T09:00:19.456Z,44.90
2018-07-31T09:02:48.033Z,45.20
2018-07-31T09:05:16.452Z,45.80
2018-07-31T09:07:44.913Z,46.90
2018-07-31T09:10:13.349Z,46.10
2018-07-31T09:12:41.750Z,43.90
2018-07-31T09:15:10.289Z,42.70
2018-07-31T09:17:38.682Z,43.50
2018-07-31T09:20:07.116Z,44.20
2018-07-31T09:22:35.543Z,44.80
2018-07-31T09:25:04.001Z,45.50
2018-07-31T09:27:32.396Z,45.60
2018-07-31T09:30:00.881Z,45.60
2018-07-31T09:32:34.708Z,46.30
2018-07-31T09:35:03.121Z,45.70
2018-07-31T09:37:31.517Z,45.70
2018-07-31T09:39:59.909Z,46.10
2018-07-31T09:42:28.301Z,46.10
2018-07-31T09:44:56.728Z,46.10
2018-07-31T09:47:25.131Z,46.40
2018-07-31T09:49:53.521Z,45.70
2018-07-31T09:52:21.937Z,45.70
2018-07-31T09:54:50.336Z,45.80
2018-07-31T09:57:18.757Z,45.10
2018-07-31T09:59:47.129Z,44.60
2018-07-31T10:02:15.534Z,44.20
2018-07-31T10:04:43.912Z,44.00
2018-07-31T10:07:12.320Z,43.80
2018-07-31T10:09:40.726Z,43.60
2018-07-31T10:12:09.267Z,43.80
2018-07-31T10:14:37.561Z,44.00
2018-07-31T10:17:05.964Z,42.80
2018-07-31T10:19:34.357Z,42.60
2018-07-31T10:22:02.976Z,42.60
2018-07-31T10:24:31.404Z,43.60
2018-07-31T10:26:59.784Z,43.90
2018-07-31T10:29:28.147Z,44.30
2018-07-31T10:31:56.545Z,44.60
2018-07-31T10:34:25.007Z,44.90
2018-07-31T10:36:53.652Z,45.20
2018-07-31T10:39:22.030Z,44.90
2018-07-31T10:41:50.421Z,44.40
2018-07-31T10:44:18.851Z,43.70
2018-07-31T10:46:47.230Z,43.10
2018-07-31T10:49:15.628Z,41.90
2018-07-31T10:51:44.023Z,40.40
2018-07-31T10:54:12.480Z,39.10
2018-07-31T10:56:40.860Z,38.30
2018-07-31T10:59:09.424Z,37.50
2018-07-31T11:01:37.792Z,37.10
2018-07-31T11:04:06.243Z,36.30
2018-07-31T11:06:34.866Z,35.20
2018-07-31T11:09:03.853Z,34.70
2018-07-31T11:11:32.280Z,34.40
2018-07-31T11:14:00.721Z,34.30
2018-07-31T11:16:29.148Z,34.30
2018-07-31T11:18:57.607Z,34.40
2018-07-31T11:21:26.065Z,34.30
2018-07-31T11:23:54.672Z,34.00
2018-07-31T11:26:23.068Z,33.80
2018-07-31T11:28:51.486Z,33.80
2018-07-31T11:31:19.935Z,33.70
2018-07-31T11:33:48.388Z,33.30
2018-07-31T11:36:16.826Z,33.30
2018-07-31T11:38:45.285Z,33.20
2018-07-31T11:41:13.736Z,32.90
2018-07-31T11:43:42.236Z,33.00
2018-07-31T11:46:10.649Z,33.10
2018-07-31T11:48:39.080Z,33.10
2018-07-31T11:51:07.529Z,33.00
2018-07-31T11:53:35.988Z,33.00
2018-07-31T11:56:04.415Z,32.90
2018-07-31T11:58:33.137Z,33.00
2018-07-31T12:01:01.584Z,32.80
2018-07-31T12:03:30.037Z,32.40
2018-07-31T12:05:58.444Z,32.30
2018-07-31T12:08:26.940Z,32.50
2018-07-31T12:13:23.532Z,32.60
2018-07-31T12:15:51.976Z,32.60
2018-07-31T12:18:20.460Z,32.60
2018-07-31T12:20:49.033Z,32.60
2018-07-31T12:23:17.445Z,32.50
2018-07-31T12:25:45.912Z,32.30
2018-07-31T12:28:14.554Z,32.20
2018-07-31T12:30:43.007Z,32.20
2018-07-31T12:33:11.532Z,32.20
2018-07-31T12:35:40.013Z,32.00
2018-07-31T12:38:08.540Z,31.80
2018-07-31T12:40:37.000Z,31.80
2018-07-31T12:45:33.604Z,32.10
2018-07-31T12:48:02.021Z,32.10
2018-07-31T12:50:30.456Z,32.20
2018-07-31T12:52:58.877Z,32.20
2018-07-31T12:55:27.324Z,32.20
2018-07-31T12:57:55.782Z,32.00
2018-07-31T13:00:24.200Z,31.80
2018-07-31T13:02:52.604Z,32.00
2018-07-31T13:05:21.076Z,32.10
2018-07-31T13:07:49.503Z,32.20
2018-07-31T13:10:17.956Z,32.30
2018-07-31T13:15:14.719Z,32.50
2018-07-31T13:17:43.142Z,32.30
2018-07-31T13:20:11.727Z,32.10
2018-07-31T13:22:40.197Z,31.90
2018-07-31T13:25:08.650Z,31.90
2018-07-31T13:27:37.159Z,32.00
2018-07-31T13:30:06.221Z,32.00
2018-07-31T13:32:34.639Z,32.10
2018-07-31T13:35:03.120Z,32.20
2018-07-31T13:37:31.580Z,32.40
2018-07-31T13:40:00.045Z,32.50
2018-07-31T13:42:28.464Z,32.70
2018-07-31T13:44:57.360Z,32.70
2018-07-31T13:47:25.752Z,32.70
2018-07-31T13:49:54.204Z,32.70
2018-07-31T13:52:22.654Z,32.70
2018-07-31T13:54:51.136Z,32.60
2018-07-31T13:57:19.576Z,32.40
2018-07-31T13:59:48.044Z,32.30
2018-07-31T14:02:16.495Z,32.20
2018-07-31T14:04:44.956Z,32.10
2018-07-31T14:07:13.377Z,32.20
2018-07-31T14:09:41.832Z,32.20
2018-07-31T14:12:10.239Z,32.10
2018-07-31T14:14:38.646Z,32.10
2018-07-31T14:17:07.092Z,31.90
2018-07-31T14:19:35.528Z,31.70
2018-07-31T14:22:03.980Z,31.50
2018-07-31T14:24:32.472Z,31.40
2018-07-31T14:27:00.913Z,31.30
2018-07-31T14:29:29.303Z,31.30
2018-07-31T14:31:57.758Z,31.30
2018-07-31T14:34:26.161Z,31.40
2018-07-31T14:36:54.612Z,31.40
2018-07-31T14:39:23.081Z,31.40
2018-07-31T14:41:51.509Z,31.50
2018-07-31T14:46:48.100Z,31.60
2018-07-31T14:49:16.632Z,31.70
2018-07-31T14:51:45.101Z,31.60
2018-07-31T14:54:13.616Z,31.50
2018-07-31T14:56:41.956Z,31.60
2018-07-31T14:59:10.374Z,31.50
2018-07-31T15:01:39.010Z,31.50
2018-07-31T15:04:07.448Z,31.50
2018-07-31T15:06:35.887Z,31.50
2018-07-31T15:09:06.033Z,31.60
2018-07-31T15:11:34.475Z,31.50
2018-07-31T15:14:02.924Z,31.70
2018-07-31T15:16:31.352Z,31.80
2018-07-31T15:18:59.784Z,31.80
2018-07-31T15:21:28.216Z,31.80
2018-07-31T15:23:56.623Z,31.80
2018-07-31T15:26:25.077Z,31.80
2018-07-31T15:28:53.497Z,31.80
2018-07-31T15:31:21.933Z,31.80
2018-07-31T15:33:50.364Z,31.60
2018-07-31T15:38:46.920Z,31.40
2018-07-31T15:41:15.360Z,31.40
2018-07-31T15:43:43.828Z,31.30
2018-07-31T15:46:12.301Z,31.40
2018-07-31T15:48:40.769Z,31.40
2018-07-31T15:51:09.201Z,31.40
2018-07-31T15:53:37.676Z,31.40
2018-07-31T15:56:06.466Z,31.50
2018-07-31T15:58:34.948Z,31.40
2018-07-31T16:01:03.404Z,31.30
2018-07-31T16:03:31.898Z,31.30
2018-07-31T16:06:00.325Z,31.30
2018-07-31T16:08:28.785Z,31.20
2018-07-31T16:10:57.236Z,31.20
2018-07-31T16:13:25.737Z,31.30
2018-07-31T16:15:54.184Z,31.20
2018-07-31T16:20:50.780Z,31.20
2018-07-31T16:23:19.295Z,31.10
2018-07-31T16:25:47.685Z,31.00
2018-07-31T16:28:16.154Z,30.90
2018-07-31T16:30:44.578Z,30.90
2018-07-31T16:33:13.046Z,30.80
2018-07-31T16:35:41.442Z,30.80
2018-07-31T16:38:09.916Z,30.80
2018-07-31T16:40:38.377Z,30.80
2018-07-31T16:43:06.864Z,30.80
2018-07-31T16:45:35.280Z,30.70
2018-07-31T16:48:03.732Z,30.60
2018-07-31T16:50:32.143Z,30.60
2018-07-31T16:53:00.593Z,30.60
2018-07-31T16:55:29.036Z,30.60
2018-07-31T16:57:57.479Z,30.70
2018-07-31T17:00:25.938Z,30.80
2018-07-31T17:02:54.416Z,30.70
2018-07-31T17:05:22.856Z,30.70
2018-07-31T17:07:51.353Z,30.60
2018-07-31T17:10:19.743Z,30.60
2018-07-31T17:12:48.188Z,30.50
2018-07-31T17:15:16.652Z,30.50
2018-07-31T17:17:45.146Z,30.50
2018-07-31T17:20:13.589Z,30.50
2018-07-31T17:22:42.045Z,30.50
2018-07-31T17:25:10.481Z,30.50
2018-07-31T17:27:38.918Z,30.40
2018-07-31T17:32:35.489Z,30.30
2018-07-31T17:35:04.016Z,30.20
2018-07-31T17:37:32.486Z,30.20
2018-07-31T17:40:00.897Z,30.20
2018-07-31T17:44:57.526Z,30.10
2018-07-31T17:47:25.946Z,30.00
2018-07-31T17:49:54.400Z,29.90
2018-07-31T17:52:22.806Z,29.80
2018-07-31T17:54:51.439Z,29.70
2018-07-31T17:57:19.840Z,29.60
2018-07-31T18:02:16.379Z,29.40
2018-07-31T18:07:12.950Z,29.30
2018-07-31T18:09:41.417Z,29.40
2018-07-31T18:12:09.853Z,29.30
2018-07-31T18:14:38.316Z,29.10
2018-07-31T18:17:07.060Z,29.00
2018-07-31T18:19:35.500Z,28.80
2018-07-31T18:22:04.556Z,28.60
2018-07-31T18:24:33.009Z,28.50
2018-07-31T18:27:01.434Z,28.50
2018-07-31T18:29:29.863Z,28.40
2018-07-31T18:31:58.401Z,28.40
2018-07-31T18:34:26.821Z,28.10
2018-07-31T18:36:55.244Z,28.00
2018-07-31T18:39:23.712Z,27.90
2018-07-31T18:41:52.139Z,27.70
2018-07-31T18:44:20.848Z,27.50
2018-07-31T18:46:49.292Z,27.30
2018-07-31T18:49:17.725Z,27.20
2018-07-31T18:51:46.180Z,27.10
2018-07-31T18:54:14.620Z,27.10
2018-07-31T18:59:11.192Z,26.80
2018-07-31T19:01:39.847Z,26.70
2018-07-31T19:04:08.249Z,26.60
2018-07-31T19:06:36.676Z,26.50
2018-07-31T19:09:10.338Z,26.40
2018-07-31T19:11:39.541Z,26.30
2018-07-31T19:14:08.049Z,26.20
2018-07-31T19:16:36.514Z,26.10
2018-07-31T19:19:05.259Z,26.10
2018-07-31T19:21:33.692Z,26.00
2018-07-31T19:24:02.141Z,25.90
2018-07-31T19:26:30.584Z,25.90
2018-07-31T19:31:27.129Z,25.80
2018-07-31T19:33:55.642Z,25.70
2018-07-31T19:36:24.001Z,25.60
2018-07-31T19:38:52.577Z,25.60
2018-07-31T19:41:21.032Z,25.50
2018-07-31T19:46:17.941Z,25.40
2018-07-31T19:48:46.397Z,25.30
2018-07-31T19:51:14.832Z,25.30
2018-07-31T19:53:43.244Z,25.20
2018-07-31T19:56:11.781Z,25.20
2018-07-31T19:58:40.227Z,25.10
2018-07-31T20:01:08.758Z,25.10
2018-07-31T20:03:37.134Z,25.00
2018-07-31T20:06:05.610Z,25.00
2018-07-31T20:08:34.025Z,25.00
2018-07-31T20:11:02.475Z,25.00
2018-07-31T20:13:30.913Z,25.00
2018-07-31T20:15:59.520Z,25.00
2018-07-31T20:20:56.177Z,25.00
2018-07-31T20:23:24.606Z,25.00
2018-07-31T20:25:53.054Z,25.00
2018-07-31T20:28:21.545Z,24.90
2018-07-31T20:30:50.025Z,24.90
2018-07-31T20:33:18.420Z,24.80
2018-07-31T20:35:46.848Z,24.80
2018-07-31T20:38:15.258Z,24.70
2018-07-31T20:40:43.745Z,24.60
2018-07-31T20:43:12.259Z,24.50
2018-07-31T20:45:40.724Z,24.40
2018-07-31T20:48:09.136Z,24.30
2018-07-31T20:50:37.618Z,24.30
2018-07-31T20:53:06.468Z,24.20
2018-07-31T20:55:34.931Z,24.10
2018-07-31T20:58:03.369Z,24.10
2018-07-31T21:00:31.831Z,24.10
2018-07-31T21:03:00.513Z,23.90
2018-07-31T21:05:28.954Z,23.90
2018-07-31T21:07:57.385Z,23.80
2018-07-31T21:10:25.901Z,23.70
2018-07-31T21:12:54.335Z,23.70
2018-07-31T21:15:22.864Z,23.60
2018-07-31T21:17:51.436Z,23.60
2018-07-31T21:20:19.871Z,23.60
2018-07-31T21:22:48.262Z,23.60
2018-07-31T21:25:16.780Z,23.50
2018-07-31T21:27:45.196Z,23.50
2018-07-31T21:30:13.619Z,23.50
2018-07-31T21:32:42.064Z,23.40
2018-07-31T21:35:10.511Z,23.40
2018-07-31T21:37:38.980Z,23.30
2018-07-31T21:42:35.610Z,23.10
2018-07-31T21:45:04.117Z,23.10
2018-07-31T21:47:32.567Z,23.00
2018-07-31T21:50:00.975Z,22.90
2018-07-31T21:52:29.432Z,22.90
2018-07-31T21:54:57.846Z,22.90
2018-07-31T21:57:26.393Z,22.80
2018-07-31T21:59:54.844Z,22.80
2018-07-31T22:02:23.293Z,22.70
2018-07-31T22:04:51.728Z,22.80
2018-07-31T22:07:20.150Z,22.70
2018-07-31T22:09:48.551Z,22.70
2018-07-31T22:12:17.356Z,22.60
2018-07-31T22:14:45.732Z,22.60
2018-07-31T22:17:14.168Z,22.50
2018-07-31T22:19:42.600Z,22.50
2018-07-31T22:22:11.028Z,22.40
2018-07-31T22:24:39.585Z,22.40
2018-07-31T22:27:08.048Z,22.40
2018-07-31T22:29:36.450Z,22.40
2018-07-31T22:32:04.885Z,22.40
2018-07-31T22:34:33.337Z,22.30
2018-07-31T22:37:01.963Z,22.10
2018-07-31T22:39:30.372Z,21.90
2018-07-31T22:44:27.061Z,21.90
2018-07-31T22:46:55.499Z,21.90
2018-07-31T22:49:23.964Z,21.90
2018-07-31T22:51:52.445Z,21.80
2018-07-31T22:54:20.853Z,21.80
2018-07-31T22:56:49.276Z,21.80
2018-07-31T22:59:17.697Z,21.80
2018-07-31T23:01:46.240Z,21.80
2018-07-31T23:04:14.864Z,21.80
2018-07-31T23:06:43.289Z,21.90
2018-07-31T23:09:12.465Z,21.80
2018-07-31T23:11:40.941Z,21.80
2018-07-31T23:14:09.527Z,21.80
2018-07-31T23:19:06.294Z,21.70
2018-07-31T23:21:34.951Z,21.70
2018-07-31T23:26:31.469Z,21.70
2018-07-31T23:28:59.952Z,21.70
2018-07-31T23:31:28.359Z,21.60
2018-07-31T23:33:56.956Z,21.60
2018-07-31T23:38:53.516Z,21.40
2018-07-31T23:41:22.763Z,21.30
2018-07-31T23:43:51.214Z,21.30
2018-07-31T23:46:20.108Z,21.30
2018-07-31T23:48:48.581Z,21.20
2018-07-31T23:51:16.993Z,21.10
2018-07-31T23:53:45.460Z,21.10
2018-07-31T23:56:13.884Z,21.20
2018-07-31T23:58:42.380Z,21.20
